Time;durP1;ratioP1;P1;durP2;ratioP2;P2;SDS_P1;SDS_P2;PMS_P1;PMS_P2;Temp;Humidity;BMP_temperature;BMP_pressure;BME280_temperature;BME280_humidity;BME280_pressure;Samples;Min_cycle;Max_cycle;Signal;HPM_P1;HPM_P2
2023/03/20 00:02:01;;;;;;;;;;;17.10;64.20;;;;;;5042813;28;823;-70
2023/03/20 00:04:28;;;;;;;;;;;17.10;64.20;;;;;;5047047;28;1274;-70
2023/03/20 00:06:53;;;;;;;;;;;17.10;64.20;;;;;;5042261;28;935;-71
2023/03/20 00:09:19;;;;;;;;;;;17.10;64.30;;;;;;5044387;28;891;-71
2023/03/20 00:11:48;;;;;;;;;;;17.10;64.30;;;;;;5041600;28;820;-71
2023/03/20 00:14:14;;;;;;;;;;;17.10;64.30;;;;;;5044913;28;1268;-70
2023/03/20 00:16:43;;;;;;;;;;;17.10;64.30;;;;;;5047211;28;904;-71
2023/03/20 00:19:14;;;;;;;;;;;17.10;64.30;;;;;;5043489;28;1914;-70
2023/03/20 00:21:39;;;;;;;;;;;17.10;64.30;;;;;;5050975;28;894;-70
2023/03/20 00:24:05;;;;;;;;;;;17.10;64.30;;;;;;5044499;28;1268;-70
2023/03/20 00:26:32;;;;;;;;;;;17.10;64.40;;;;;;5041725;28;882;-70
2023/03/20 00:28:57;;;;;;;;;;;17.10;64.30;;;;;;5046627;28;1074;-70
2023/03/20 00:31:23;;;;;;;;;;;17.10;64.40;;;;;;5045755;28;1291;-70
2023/03/20 00:33:49;;;;;;;;;;;17.10;64.30;;;;;;5039709;28;1290;-70
2023/03/20 00:36:14;;;;;;;;;;;17.10;64.40;;;;;;5041193;28;2160;-69
2023/03/20 00:38:40;;;;;;;;;;;17.10;64.40;;;;;;5042786;28;1980;-70
2023/03/20 00:41:17;;;;;;;;;;;17.10;64.40;;;;;;5040314;28;1537;-70
2023/03/20 00:43:42;;;;;;;;;;;17.10;64.40;;;;;;5041358;28;1393;-69
2023/03/20 00:46:11;;;;;;;;;;;17.10;64.40;;;;;;5040005;28;1216;-70
2023/03/20 00:48:36;;;;;;;;;;;17.10;64.40;;;;;;5047356;28;850;-70
2023/03/20 00:51:01;;;;;;;;;;;17.10;64.40;;;;;;5040356;28;891;-70
2023/03/20 00:53:27;;;;;;;;;;;17.10;64.50;;;;;;5041783;28;1271;-70
2023/03/20 00:55:52;;;;;;;;;;;17.10;65.20;;;;;;5041931;28;907;-70
2023/03/20 00:58:18;;;;;;;;;;;17.10;64.50;;;;;;5046842;28;1988;-70
2023/03/20 01:00:44;;;;;;;;;;;17.10;64.50;;;;;;5040116;28;804;-70
2023/03/20 01:03:11;;;;;;;;;;;17.10;64.60;;;;;;5024903;28;1307;-70
2023/03/20 01:05:37;;;;;;;;;;;17.10;64.50;;;;;;5041010;28;908;-70
2023/03/20 01:08:04;;;;;;;;;;;17.10;64.50;;;;;;5042087;28;954;-70
2023/03/20 01:10:30;;;;;;;;;;;17.10;64.50;;;;;;5041087;28;1074;-69
2023/03/20 01:12:57;;;;;;;;;;;17.10;64.50;;;;;;5038752;28;1291;-70
2023/03/20 01:15:23;;;;;;;;;;;17.10;64.50;;;;;;5041520;28;1211;-70
2023/03/20 01:17:49;;;;;;;;;;;17.10;64.50;;;;;;5038136;28;1983;-70
2023/03/20 01:20:19;;;;;;;;;;;17.00;64.50;;;;;;5038314;28;1296;-70
2023/03/20 01:22:45;;;;;;;;;;;17.10;64.60;;;;;;5037294;28;1353;-70
2023/03/20 01:25:11;;;;;;;;;;;17.10;64.60;;;;;;5037404;28;857;-70
2023/03/20 01:27:36;;;;;;;;;;;17.10;64.60;;;;;;5039564;28;781;-70
2023/03/20 01:30:03;;;;;;;;;;;17.10;64.60;;;;;;5024318;28;1350;-70
2023/03/20 01:32:28;;;;;;;;;;;17.10;64.60;;;;;;5041362;28;823;-70
2023/03/20 01:34:53;;;;;;;;;;;17.00;64.50;;;;;;5041381;28;1296;-70
2023/03/20 01:37:23;;;;;;;;;;;17.10;64.60;;;;;;5043115;28;1926;-70
2023/03/20 01:39:49;;;;;;;;;;;17.00;64.50;;;;;;5041672;28;906;-70
2023/03/20 01:42:14;;;;;;;;;;;17.00;64.50;;;;;;5046947;28;853;-70
2023/03/20 01:44:40;;;;;;;;;;;17.00;64.50;;;;;;5040684;28;1355;-70
2023/03/20 01:47:11;;;;;;;;;;;17.00;64.70;;;;;;5038508;28;883;-70
2023/03/20 01:49:55;;;;;;;;;;;17.10;64.70;;;;;;5039368;28;1509;-70
2023/03/20 01:52:20;;;;;;;;;;;17.00;64.60;;;;;;5039814;28;1010;-70
2023/03/20 01:54:46;;;;;;;;;;;17.00;64.60;;;;;;5043817;28;1304;-70
2023/03/20 01:57:12;;;;;;;;;;;17.00;64.60;;;;;;5039341;28;864;-70
2023/03/20 01:59:38;;;;;;;;;;;17.00;64.60;;;;;;5041585;28;1890;-70
2023/03/20 02:02:04;;;;;;;;;;;17.00;64.60;;;;;;5037990;28;863;-70
2023/03/20 02:04:33;;;;;;;;;;;17.00;64.70;;;;;;5036311;28;1270;-70
2023/03/20 02:06:59;;;;;;;;;;;17.00;64.70;;;;;;5023053;28;1358;-71
2023/03/20 02:09:25;;;;;;;;;;;17.00;64.70;;;;;;5042698;28;873;-70
2023/03/20 02:11:50;;;;;;;;;;;17.00;64.70;;;;;;5039970;28;824;-70
2023/03/20 02:14:15;;;;;;;;;;;17.00;64.70;;;;;;5035702;28;1384;-70
2023/03/20 02:16:41;;;;;;;;;;;17.00;64.70;;;;;;5039598;28;1037;-70
2023/03/20 02:19:07;;;;;;;;;;;17.00;64.70;;;;;;5039481;28;1906;-69
2023/03/20 02:21:51;;;;;;;;;;;17.00;64.80;;;;;;5038142;28;1292;-70
2023/03/20 02:24:39;;;;;;;;;;;17.00;64.70;;;;;;5043278;28;1288;-69
2023/03/20 02:27:05;;;;;;;;;;;17.00;64.70;;;;;;5039620;28;1425;-70
2023/03/20 02:29:44;;;;;;;;;;;17.00;64.70;;;;;;5039944;28;1537;-69
2023/03/20 02:32:28;;;;;;;;;;;17.00;64.80;;;;;;5039265;28;1599;-70
2023/03/20 02:35:10;;;;;;;;;;;17.00;64.70;;;;;;5038848;28;1309;-69
2023/03/20 02:37:57;;;;;;;;;;;17.00;64.80;;;;;;5042304;28;1977;-71
2023/03/20 02:40:24;;;;;;;;;;;17.00;64.70;;;;;;5039786;28;1428;-70
2023/03/20 02:42:52;;;;;;;;;;;17.00;64.80;;;;;;5040044;28;1351;-70
2023/03/20 02:45:21;;;;;;;;;;;17.00;64.80;;;;;;5038233;28;1364;-70
2023/03/20 02:48:03;;;;;;;;;;;17.00;64.80;;;;;;5042256;28;836;-70
2023/03/20 02:50:29;;;;;;;;;;;17.00;64.80;;;;;;5037343;28;1019;-71
2023/03/20 02:53:16;;;;;;;;;;;17.00;64.80;;;;;;5038338;28;1247;-71
2023/03/20 02:55:43;;;;;;;;;;;17.00;64.80;;;;;;5037656;28;816;-71
2023/03/20 02:58:08;;;;;;;;;;;17.00;64.80;;;;;;5041158;28;1906;-71
2023/03/20 03:00:35;;;;;;;;;;;17.00;64.80;;;;;;5044338;28;974;-70
2023/03/20 03:03:04;;;;;;;;;;;17.00;64.80;;;;;;5039040;28;1351;-72
2023/03/20 03:05:31;;;;;;;;;;;17.00;64.80;;;;;;5038148;28;867;-71
2023/03/20 03:07:58;;;;;;;;;;;17.00;64.80;;;;;;5039854;28;797;-70
2023/03/20 03:10:28;;;;;;;;;;;17.00;64.80;;;;;;5036503;28;855;-71
2023/03/20 03:12:54;;;;;;;;;;;17.00;64.90;;;;;;5035974;28;1273;-69
2023/03/20 03:15:21;;;;;;;;;;;17.00;64.90;;;;;;5037761;28;915;-70
2023/03/20 03:17:48;;;;;;;;;;;17.00;64.90;;;;;;5037881;28;1902;-69
2023/03/20 03:20:15;;;;;;;;;;;17.00;64.90;;;;;;5047662;28;859;-70
2023/03/20 03:22:41;;;;;;;;;;;17.00;64.90;;;;;;5037281;28;1267;-68
2023/03/20 03:25:08;;;;;;;;;;;17.00;64.90;;;;;;5036986;28;1190;-70
2023/03/20 03:27:35;;;;;;;;;;;17.00;64.90;;;;;;5036893;28;1225;-70
2023/03/20 03:30:02;;;;;;;;;;;17.00;64.90;;;;;;5038298;28;888;-70
2023/03/20 03:32:31;;;;;;;;;;;17.00;64.90;;;;;;5040663;28;915;-69
2023/03/20 03:34:57;;;;;;;;;;;17.00;64.90;;;;;;5037448;28;1348;-70
2023/03/20 03:37:25;;;;;;;;;;;17.00;64.90;;;;;;5041341;28;1898;-69
2023/03/20 03:39:52;;;;;;;;;;;17.00;64.90;;;;;;5037944;28;808;-70
2023/03/20 03:42:17;;;;;;;;;;;17.00;64.90;;;;;;5036286;28;982;-69
2023/03/20 03:44:47;;;;;;;;;;;17.00;64.90;;;;;;5038166;28;1350;-69
2023/03/20 03:47:18;;;;;;;;;;;17.00;64.90;;;;;;5037789;28;848;-69
2023/03/20 03:49:46;;;;;;;;;;;17.00;64.90;;;;;;5037052;28;848;-70
2023/03/20 03:52:14;;;;;;;;;;;17.00;64.90;;;;;;5041650;28;849;-69
2023/03/20 03:54:55;;;;;;;;;;;17.00;64.90;;;;;;5035474;28;1265;-69
2023/03/20 03:57:22;;;;;;;;;;;17.00;64.90;;;;;;5046556;28;1949;-69
2023/03/20 03:59:48;;;;;;;;;;;17.00;65.00;;;;;;5040136;28;1442;-69
2023/03/20 04:02:14;;;;;;;;;;;17.00;65.00;;;;;;5041655;28;951;-69
2023/03/20 04:04:41;;;;;;;;;;;17.00;65.00;;;;;;5048649;28;1253;-71
2023/03/20 04:07:07;;;;;;;;;;;17.00;65.00;;;;;;5040790;28;887;-70
2023/03/20 04:09:32;;;;;;;;;;;16.90;64.90;;;;;;5042766;28;967;-70
2023/03/20 04:11:58;;;;;;;;;;;16.90;64.90;;;;;;5068259;28;1194;-70
2023/03/20 04:14:23;;;;;;;;;;;17.00;65.00;;;;;;5044426;28;1412;-69
2023/03/20 04:16:49;;;;;;;;;;;16.90;64.90;;;;;;5041573;28;887;-70
2023/03/20 04:19:14;;;;;;;;;;;17.00;65.00;;;;;;5040998;28;1905;-69
2023/03/20 04:21:40;;;;;;;;;;;17.00;65.00;;;;;;5041382;28;919;-70
2023/03/20 04:24:06;;;;;;;;;;;17.00;65.00;;;;;;5040750;28;1266;-70
2023/03/20 04:26:31;;;;;;;;;;;16.90;64.90;;;;;;5042059;28;887;-70
2023/03/20 04:28:57;;;;;;;;;;;17.00;65.00;;;;;;5038261;28;827;-69
2023/03/20 04:31:22;;;;;;;;;;;17.00;65.00;;;;;;5038786;28;884;-69
2023/03/20 04:33:47;;;;;;;;;;;16.90;65.00;;;;;;5038972;28;1373;-70
2023/03/20 04:36:13;;;;;;;;;;;16.90;65.00;;;;;;5040882;28;926;-70
2023/03/20 04:38:39;;;;;;;;;;;16.90;65.00;;;;;;5044266;28;1961;-70
2023/03/20 04:41:04;;;;;;;;;;;17.00;65.10;;;;;;5041776;28;880;-69
2023/03/20 04:43:30;;;;;;;;;;;16.90;65.00;;;;;;5039666;28;1439;-69
2023/03/20 04:45:55;;;;;;;;;;;16.90;65.00;;;;;;5041868;28;845;-69
2023/03/20 04:48:21;;;;;;;;;;;16.90;65.00;;;;;;5039484;28;1077;-68
2023/03/20 04:50:47;;;;;;;;;;;16.90;65.00;;;;;;5042204;28;879;-70
2023/03/20 04:53:13;;;;;;;;;;;16.90;65.00;;;;;;5042247;28;1339;-70
2023/03/20 04:55:38;;;;;;;;;;;16.90;65.00;;;;;;5042437;28;918;-70
2023/03/20 04:58:04;;;;;;;;;;;16.90;65.00;;;;;;5038863;28;1894;-70
2023/03/20 05:00:29;;;;;;;;;;;16.90;65.00;;;;;;5040896;28;871;-70
2023/03/20 05:02:55;;;;;;;;;;;16.90;65.00;;;;;;5039144;28;1251;-71
2023/03/20 05:05:21;;;;;;;;;;;16.90;65.00;;;;;;5040641;28;871;-70
2023/03/20 05:07:47;;;;;;;;;;;16.90;65.00;;;;;;5040957;28;1219;-70
2023/03/20 05:10:13;;;;;;;;;;;17.00;65.00;;;;;;5032928;28;1122;-71
2023/03/20 05:12:39;;;;;;;;;;;17.00;65.00;;;;;;5041832;28;1486;-70
2023/03/20 05:15:05;;;;;;;;;;;17.00;64.90;;;;;;5042966;28;1377;-70
2023/03/20 05:17:30;;;;;;;;;;;17.00;64.80;;;;;;5041775;28;1985;-70
2023/03/20 05:19:56;;;;;;;;;;;17.00;64.70;;;;;;5038930;28;855;-69
2023/03/20 05:22:21;;;;;;;;;;;17.10;64.70;;;;;;5041111;28;918;-70
2023/03/20 05:24:47;;;;;;;;;;;17.10;64.50;;;;;;5039878;28;1248;-70
2023/03/20 05:27:12;;;;;;;;;;;17.10;64.40;;;;;;5038986;28;913;-72
2023/03/20 05:29:38;;;;;;;;;;;17.20;64.30;;;;;;5047408;28;872;-71
2023/03/20 05:32:03;;;;;;;;;;;17.20;64.20;;;;;;5040275;28;1084;-72
2023/03/20 05:34:29;;;;;;;;;;;17.20;64.10;;;;;;5026228;28;1329;-72
2023/03/20 05:36:54;;;;;;;;;;;17.20;64.00;;;;;;5024997;28;1538;-69
2023/03/20 05:39:21;;;;;;;;;;;17.30;64.10;;;;;;5038115;28;1957;-70
2023/03/20 05:41:46;;;;;;;;;;;17.30;63.90;;;;;;5047393;28;1489;-70
2023/03/20 05:44:12;;;;;;;;;;;17.30;63.80;;;;;;5042004;28;1416;-70
2023/03/20 05:46:37;;;;;;;;;;;17.30;63.70;;;;;;5040068;28;1331;-69
2023/03/20 05:49:03;;;;;;;;;;;17.30;63.70;;;;;;5038902;28;837;-69
2023/03/20 05:51:28;;;;;;;;;;;17.30;63.60;;;;;;5041030;28;864;-70
2023/03/20 05:53:54;;;;;;;;;;;17.40;63.60;;;;;;5039579;28;1251;-70
2023/03/20 05:56:19;;;;;;;;;;;17.40;63.50;;;;;;5041522;28;988;-69
2023/03/20 05:58:44;;;;;;;;;;;17.40;63.50;;;;;;5040550;28;1886;-69
2023/03/20 06:01:10;;;;;;;;;;;17.40;63.40;;;;;;5038984;28;812;-69
2023/03/20 06:03:35;;;;;;;;;;;17.40;63.40;;;;;;5039765;28;1308;-70
2023/03/20 06:06:01;;;;;;;;;;;17.40;63.30;;;;;;5039141;28;924;-72
2023/03/20 06:08:29;;;;;;;;;;;17.40;63.30;;;;;;5042693;28;865;-70
2023/03/20 06:10:54;;;;;;;;;;;17.40;63.30;;;;;;5041946;28;863;-70
2023/03/20 06:13:20;;;;;;;;;;;17.50;63.30;;;;;;5038531;28;1280;-70
2023/03/20 06:15:45;;;;;;;;;;;17.40;63.20;;;;;;5037511;28;821;-71
2023/03/20 06:18:11;;;;;;;;;;;17.50;63.20;;;;;;5037923;28;1968;-70
2023/03/20 06:20:36;;;;;;;;;;;17.50;63.20;;;;;;5038020;28;1042;-70
2023/03/20 06:23:01;;;;;;;;;;;17.50;63.20;;;;;;5039712;28;1351;-71
2023/03/20 06:25:27;;;;;;;;;;;17.50;63.20;;;;;;5036578;28;1738;-71
2023/03/20 06:27:52;;;;;;;;;;;17.50;63.20;;;;;;5042445;28;1511;-69
2023/03/20 06:30:18;;;;;;;;;;;17.50;63.20;;;;;;5039073;28;1655;-71
2023/03/20 06:32:43;;;;;;;;;;;17.50;63.20;;;;;;5040563;28;1285;-71
2023/03/20 06:35:09;;;;;;;;;;;17.50;63.20;;;;;;5041798;28;852;-71
2023/03/20 06:37:35;;;;;;;;;;;17.50;63.20;;;;;;5037349;28;1902;-71
2023/03/20 06:40:01;;;;;;;;;;;17.50;63.20;;;;;;5037131;28;832;-71
2023/03/20 06:42:26;;;;;;;;;;;17.50;63.20;;;;;;5038446;28;913;-71
2023/03/20 06:44:52;;;;;;;;;;;17.50;63.20;;;;;;5037268;28;1628;-73
2023/03/20 06:47:17;;;;;;;;;;;17.50;63.20;;;;;;5037381;28;1955;-69
2023/03/20 06:49:43;;;;;;;;;;;17.50;63.20;;;;;;5037686;28;1461;-76
2023/03/20 06:52:13;;;;;;;;;;;17.50;63.20;;;;;;5038773;28;1486;-76
2023/03/20 06:54:38;;;;;;;;;;;17.50;63.20;;;;;;5044971;28;1395;-76
2023/03/20 06:57:04;;;;;;;;;;;17.50;64.10;;;;;;5037996;28;1022;-74
2023/03/20 06:59:30;;;;;;;;;;;17.50;63.30;;;;;;5041389;28;1902;-75
2023/03/20 07:01:55;;;;;;;;;;;17.50;63.30;;;;;;5037272;28;1297;-75
2023/03/20 07:04:21;;;;;;;;;;;17.40;63.20;;;;;;5035931;28;1358;-67
2023/03/20 07:06:46;;;;;;;;;;;17.50;63.30;;;;;;5038458;28;932;-67
2023/03/20 07:09:12;;;;;;;;;;;17.40;63.20;;;;;;5039683;28;832;-69
2023/03/20 07:11:38;;;;;;;;;;;17.40;63.30;;;;;;5039302;28;938;-67
2023/03/20 07:14:03;;;;;;;;;;;17.40;63.30;;;;;;5039165;28;1377;-69
2023/03/20 07:16:29;;;;;;;;;;;17.40;63.30;;;;;;5039375;28;897;-69
2023/03/20 07:18:54;;;;;;;;;;;17.40;63.30;;;;;;5038225;28;1968;-71
2023/03/20 07:21:20;;;;;;;;;;;17.40;63.40;;;;;;5037903;28;904;-71
2023/03/20 07:23:46;;;;;;;;;;;17.40;63.40;;;;;;5037252;28;1355;-69
2023/03/20 07:26:12;;;;;;;;;;;17.40;63.40;;;;;;5037423;28;820;-70
2023/03/20 07:28:38;;;;;;;;;;;17.40;63.40;;;;;;5039422;28;1271;-68
2023/03/20 07:31:03;;;;;;;;;;;17.40;63.50;;;;;;5040390;28;857;-69
2023/03/20 07:33:29;;;;;;;;;;;17.50;63.50;;;;;;5038164;28;1408;-70
2023/03/20 07:35:55;;;;;;;;;;;17.40;63.50;;;;;;5039230;28;856;-70
2023/03/20 07:38:20;;;;;;;;;;;17.40;63.50;;;;;;5037108;28;1898;-69
2023/03/20 07:40:47;;;;;;;;;;;17.40;63.50;;;;;;5036896;28;895;-72
2023/03/20 07:43:13;;;;;;;;;;;17.40;63.50;;;;;;5039847;28;1306;-72
2023/03/20 07:45:39;;;;;;;;;;;17.40;63.60;;;;;;5040782;28;2159;-72
2023/03/20 07:48:04;;;;;;;;;;;17.40;63.60;;;;;;5037689;28;880;-73
2023/03/20 07:50:30;;;;;;;;;;;17.40;63.60;;;;;;5043055;28;864;-74
2023/03/20 07:52:55;;;;;;;;;;;17.40;63.70;;;;;;5041193;28;1289;-71
2023/03/20 07:55:21;;;;;;;;;;;17.40;63.70;;;;;;5041689;28;888;-73
2023/03/20 07:57:48;;;;;;;;;;;17.30;63.60;;;;;;5043745;28;1918;-72
2023/03/20 08:00:14;;;;;;;;;;;17.30;63.60;;;;;;5043949;28;904;-72
2023/03/20 08:02:39;;;;;;;;;;;17.40;63.70;;;;;;5041994;28;1190;-72
2023/03/20 08:05:05;;;;;;;;;;;17.40;63.70;;;;;;5043672;28;1232;-74
2023/03/20 08:07:30;;;;;;;;;;;17.40;63.70;;;;;;5040203;28;854;-73
2023/03/20 08:09:56;;;;;;;;;;;17.30;63.70;;;;;;5042315;28;1088;-73
2023/03/20 08:12:21;;;;;;;;;;;17.40;63.70;;;;;;5044435;28;871;-73
2023/03/20 08:14:47;;;;;;;;;;;17.30;63.70;;;;;;5039726;28;1378;-73
2023/03/20 08:17:12;;;;;;;;;;;17.40;63.80;;;;;;5044116;28;1183;-74
2023/03/20 08:19:38;;;;;;;;;;;17.30;63.70;;;;;;5044748;28;1971;-73
2023/03/20 08:22:03;;;;;;;;;;;17.30;63.70;;;;;;5043607;28;1065;-73
2023/03/20 08:24:29;;;;;;;;;;;17.30;63.80;;;;;;5040483;28;1362;-72
2023/03/20 08:26:54;;;;;;;;;;;17.30;63.80;;;;;;5044671;28;1034;-73
2023/03/20 08:29:20;;;;;;;;;;;17.30;63.80;;;;;;5040981;28;817;-73
2023/03/20 08:31:45;;;;;;;;;;;17.30;63.80;;;;;;5041632;28;868;-73
2023/03/20 08:34:11;;;;;;;;;;;17.30;63.80;;;;;;5042580;28;1268;-73
2023/03/20 08:36:38;;;;;;;;;;;17.30;63.80;;;;;;5044106;28;1073;-73
2023/03/20 08:39:04;;;;;;;;;;;17.30;63.80;;;;;;5041968;28;1956;-72
2023/03/20 08:41:30;;;;;;;;;;;17.30;63.80;;;;;;5042827;28;904;-74
2023/03/20 08:43:55;;;;;;;;;;;17.30;63.80;;;;;;5045471;28;1293;-75
2023/03/20 08:46:21;;;;;;;;;;;17.30;63.90;;;;;;5040748;28;907;-74
2023/03/20 08:48:46;;;;;;;;;;;17.30;63.90;;;;;;5041951;28;899;-76
2023/03/20 08:51:11;;;;;;;;;;;17.30;63.90;;;;;;5042956;28;1365;-76
2023/03/20 08:53:37;;;;;;;;;;;17.30;63.90;;;;;;5049755;28;1363;-76
2023/03/20 08:56:02;;;;;;;;;;;17.30;63.90;;;;;;5039691;28;1058;-74
2023/03/20 08:58:28;;;;;;;;;;;17.30;63.90;;;;;;5041119;28;1902;-74
2023/03/20 09:00:53;;;;;;;;;;;17.30;63.90;;;;;;5042065;28;838;-74
2023/03/20 09:03:19;;;;;;;;;;;17.30;63.80;;;;;;5041879;28;1267;-75
2023/03/20 09:05:45;;;;;;;;;;;17.30;63.80;;;;;;5036302;28;896;-74
2023/03/20 09:08:11;;;;;;;;;;;17.30;63.80;;;;;;5040659;28;886;-74
2023/03/20 09:10:36;;;;;;;;;;;17.30;63.80;;;;;;5040023;28;1014;-74
2023/03/20 09:13:02;;;;;;;;;;;17.30;63.70;;;;;;5038786;28;1271;-74
2023/03/20 09:15:27;;;;;;;;;;;17.40;63.80;;;;;;5043838;28;942;-74
2023/03/20 09:17:53;;;;;;;;;;;17.40;63.70;;;;;;5042283;28;1963;-73
2023/03/20 09:20:18;;;;;;;;;;;17.40;63.70;;;;;;5041478;28;923;-73
2023/03/20 09:22:44;;;;;;;;;;;17.40;63.70;;;;;;5026947;28;1369;-73
2023/03/20 09:25:10;;;;;;;;;;;17.40;63.70;;;;;;5038854;28;801;-73
2023/03/20 09:27:35;;;;;;;;;;;17.40;63.60;;;;;;5041515;28;780;-73
2023/03/20 09:30:01;;;;;;;;;;;17.40;63.60;;;;;;5042581;28;899;-73
2023/03/20 09:32:26;;;;;;;;;;;17.40;63.60;;;;;;5038369;28;1030;-73
2023/03/20 09:34:52;;;;;;;;;;;17.40;64.40;;;;;;5041088;28;1259;-74
2023/03/20 09:37:17;;;;;;;;;;;17.40;63.60;;;;;;5041304;28;1477;-74
2023/03/20 09:39:42;;;;;;;;;;;17.40;63.60;;;;;;5046524;28;1898;-74
2023/03/20 09:42:28;;;;;;;;;;;17.40;63.60;;;;;;5041763;28;811;-74
2023/03/20 09:45:13;;;;;;;;;;;17.40;63.60;;;;;;5035399;28;1460;-74
2023/03/20 09:47:57;;;;;;;;;;;17.40;63.70;;;;;;5040460;28;801;-74
2023/03/20 09:50:41;;;;;;;;;;;17.40;63.60;;;;;;5042315;28;795;-74
2023/03/20 09:53:10;;;;;;;;;;;17.40;63.60;;;;;;5039484;28;1307;-74
2023/03/20 09:55:36;;;;;;;;;;;17.40;63.60;;;;;;5044864;28;908;-74
2023/03/20 09:58:03;;;;;;;;;;;17.40;63.60;;;;;;5041528;28;1969;-75
2023/03/20 10:00:30;;;;;;;;;;;17.40;63.60;;;;;;5040571;28;797;-72
2023/03/20 10:03:02;;;;;;;;;;;17.40;63.60;;;;;;5043847;28;1326;-72
2023/03/20 10:05:36;;;;;;;;;;;17.40;63.60;;;;;;5039296;28;971;-73
2023/03/20 10:08:02;;;;;;;;;;;17.50;63.60;;;;;;5039062;28;824;-73
2023/03/20 10:10:30;;;;;;;;;;;17.40;63.50;;;;;;5042477;28;911;-72
2023/03/20 10:13:16;;;;;;;;;;;17.40;63.50;;;;;;5042955;28;1256;-73
2023/03/20 10:16:08;;;;;;;;;;;17.40;63.50;;;;;;5039968;28;990;-73
2023/03/20 10:18:34;;;;;;;;;;;17.40;64.30;;;;;;5026588;28;2124;-73
2023/03/20 10:21:12;;;;;;;;;;;17.40;63.50;;;;;;5041524;28;859;-72
2023/03/20 10:23:41;;;;;;;;;;;17.40;63.60;;;;;;5044513;28;1329;-73
2023/03/20 10:26:13;;;;;;;;;;;17.40;63.60;;;;;;5035943;28;923;-73
2023/03/20 10:28:58;;;;;;;;;;;17.40;63.60;;;;;;5040426;28;1012;-73
2023/03/20 10:31:26;;;;;;;;;;;17.40;63.60;;;;;;5043187;28;1332;-73
2023/03/20 10:34:10;;;;;;;;;;;17.40;63.60;;;;;;5041153;28;1354;-73
2023/03/20 10:36:54;;;;;;;;;;;17.40;63.60;;;;;;5040214;28;1061;-73
2023/03/20 10:39:38;;;;;;;;;;;17.40;63.70;;;;;;5040436;28;1902;-73
2023/03/20 10:42:06;;;;;;;;;;;17.40;63.70;;;;;;5038484;28;1213;-73
2023/03/20 10:44:34;;;;;;;;;;;17.40;63.70;;;;;;5040053;28;1375;-73
2023/03/20 10:47:00;;;;;;;;;;;17.40;63.70;;;;;;5041024;28;804;-72
2023/03/20 10:49:29;;;;;;;;;;;17.40;63.80;;;;;;5039183;28;853;-72
2023/03/20 10:51:58;;;;;;;;;;;17.40;63.80;;;;;;5039601;28;974;-72
2023/03/20 10:54:29;;;;;;;;;;;17.40;63.80;;;;;;5042410;28;1273;-72
2023/03/20 10:56:55;;;;;;;;;;;17.40;63.80;;;;;;5039765;28;888;-72
2023/03/20 10:59:28;;;;;;;;;;;17.40;63.80;;;;;;5040275;28;1894;-72
2023/03/20 11:01:53;;;;;;;;;;;17.40;63.80;;;;;;5038360;28;958;-72
2023/03/20 11:04:19;;;;;;;;;;;17.30;63.80;;;;;;5034756;28;1316;-72
2023/03/20 11:06:47;;;;;;;;;;;17.30;63.80;;;;;;5038326;28;844;-72
2023/03/20 11:09:18;;;;;;;;;;;17.30;63.80;;;;;;5041918;28;955;-72
2023/03/20 11:11:44;;;;;;;;;;;17.30;63.80;;;;;;5038787;28;808;-72
2023/03/20 11:14:17;;;;;;;;;;;17.30;63.80;;;;;;5039496;28;1688;-72
2023/03/20 11:16:45;;;;;;;;;;;17.30;63.90;;;;;;5040994;28;910;-72
2023/03/20 11:19:11;;;;;;;;;;;17.30;63.90;;;;;;5041631;28;1973;-72
2023/03/20 11:21:43;;;;;;;;;;;17.30;63.90;;;;;;5036767;28;876;-72
2023/03/20 11:24:19;;;;;;;;;;;17.30;63.90;;;;;;5038625;28;1478;-72
2023/03/20 11:26:45;;;;;;;;;;;17.30;64.70;;;;;;5040414;28;785;-72
2023/03/20 11:29:15;;;;;;;;;;;17.30;64.00;;;;;;5037820;28;911;-72
2023/03/20 11:31:40;;;;;;;;;;;17.30;64.00;;;;;;5021642;28;868;-72
2023/03/20 11:34:06;;;;;;;;;;;17.30;64.00;;;;;;5039018;28;1365;-72
2023/03/20 11:36:32;;;;;;;;;;;17.30;64.00;;;;;;5038233;28;1054;-72
2023/03/20 11:39:04;;;;;;;;;;;17.30;64.10;;;;;;5039188;28;1886;-72
2023/03/20 11:41:29;;;;;;;;;;;17.30;64.40;;;;;;5037962;28;828;-71
2023/03/20 11:43:55;;;;;;;;;;;17.30;64.30;;;;;;5036406;28;1393;-73
2023/03/20 11:46:23;;;;;;;;;;;17.30;64.30;;;;;;5038094;28;1118;-72
2023/03/20 11:49:06;;;;;;;;;;;17.30;64.30;;;;;;5036888;28;871;-72
2023/03/20 11:51:32;;;;;;;;;;;17.30;64.40;;;;;;5038651;28;927;-76
2023/03/20 11:53:59;;;;;;;;;;;17.30;64.40;;;;;;5040199;28;1338;-72
2023/03/20 11:56:25;;;;;;;;;;;17.30;64.30;;;;;;5034336;28;821;-72
2023/03/20 11:58:51;;;;;;;;;;;17.30;64.40;;;;;;5046177;28;1894;-71
2023/03/20 12:01:16;;;;;;;;;;;17.30;64.40;;;;;;5035946;28;1026;-72
2023/03/20 12:03:54;;;;;;;;;;;17.30;64.40;;;;;;5038693;28;1328;-72
2023/03/20 12:06:27;;;;;;;;;;;17.30;64.40;;;;;;5037084;28;1270;-72
2023/03/20 12:08:56;;;;;;;;;;;17.30;64.40;;;;;;5040578;28;800;-72
2023/03/20 12:11:22;;;;;;;;;;;17.20;64.30;;;;;;5035163;28;951;-72
2023/03/20 12:13:47;;;;;;;;;;;17.30;64.40;;;;;;5038691;28;1303;-72
2023/03/20 12:16:14;;;;;;;;;;;17.30;64.50;;;;;;5038475;28;816;-72
2023/03/20 12:18:44;;;;;;;;;;;17.20;64.40;;;;;;5040175;28;1964;-72
2023/03/20 12:21:18;;;;;;;;;;;17.20;64.40;;;;;;5039495;28;889;-71
2023/03/20 12:23:48;;;;;;;;;;;17.20;64.40;;;;;;5035712;28;1285;-72
2023/03/20 12:26:36;;;;;;;;;;;17.20;64.50;;;;;;5037780;28;900;-72
2023/03/20 12:29:16;;;;;;;;;;;17.20;64.40;;;;;;5032662;28;1266;-72
2023/03/20 12:31:45;;;;;;;;;;;17.20;64.50;;;;;;5042629;28;1011;-72
2023/03/20 12:34:17;;;;;;;;;;;17.20;64.50;;;;;;5046554;28;1297;-72
2023/03/20 12:36:44;;;;;;;;;;;17.20;64.50;;;;;;5041423;28;1131;-72
2023/03/20 12:39:19;;;;;;;;;;;17.20;64.50;;;;;;5040500;28;1936;-72
2023/03/20 12:41:48;;;;;;;;;;;17.20;64.50;;;;;;5041121;28;792;-72
2023/03/20 12:44:32;;;;;;;;;;;17.20;64.50;;;;;;5040781;28;1413;-72
2023/03/20 12:47:08;;;;;;;;;;;17.20;64.50;;;;;;5039607;28;850;-72
2023/03/20 12:49:36;;;;;;;;;;;17.20;64.60;;;;;;5050016;28;864;-72
2023/03/20 12:52:21;;;;;;;;;;;17.20;64.60;;;;;;5039953;28;883;-72
2023/03/20 12:54:46;;;;;;;;;;;17.20;64.60;;;;;;5036842;28;1293;-72
2023/03/20 12:57:12;;;;;;;;;;;17.20;64.60;;;;;;5040529;28;815;-72
2023/03/20 12:59:40;;;;;;;;;;;17.20;64.60;;;;;;5037049;28;1902;-72
2023/03/20 13:02:11;;;;;;;;;;;17.20;64.60;;;;;;5038903;28;857;-72
2023/03/20 13:04:49;;;;;;;;;;;17.20;64.70;;;;;;5037459;28;1216;-71
2023/03/20 13:07:23;;;;;;;;;;;17.20;64.60;;;;;;5047364;28;888;-73
2023/03/20 13:10:04;;;;;;;;;;;17.20;64.70;;;;;;5039414;28;836;-72
2023/03/20 13:12:41;;;;;;;;;;;17.20;64.70;;;;;;5042568;28;1129;-72
2023/03/20 13:15:25;;;;;;;;;;;17.20;64.70;;;;;;5040748;28;1212;-73
2023/03/20 13:18:03;;;;;;;;;;;17.20;64.70;;;;;;5040071;28;1914;-72
2023/03/20 13:20:31;;;;;;;;;;;17.20;64.70;;;;;;5046586;28;919;-72
2023/03/20 13:23:15;;;;;;;;;;;17.20;64.70;;;;;;5040982;28;1355;-72
2023/03/20 13:25:45;;;;;;;;;;;17.20;64.70;;;;;;5054907;28;1237;-72
2023/03/20 13:28:14;;;;;;;;;;;17.20;64.80;;;;;;5024557;28;1315;-72
2023/03/20 13:30:43;;;;;;;;;;;17.20;64.80;;;;;;5039964;28;1440;-72
2023/03/20 13:33:08;;;;;;;;;;;17.20;64.80;;;;;;5041394;28;1283;-73
2023/03/20 13:35:40;;;;;;;;;;;17.10;64.70;;;;;;5042657;28;1388;-72
2023/03/20 13:38:25;;;;;;;;;;;17.10;64.70;;;;;;5039537;28;1906;-72
2023/03/20 13:40:52;;;;;;;;;;;17.20;64.80;;;;;;5040777;28;1247;-72
2023/03/20 13:43:28;;;;;;;;;;;17.10;64.80;;;;;;5039706;28;1350;-73
2023/03/20 13:46:00;;;;;;;;;;;17.10;64.70;;;;;;5040855;28;852;-72
2023/03/20 13:48:35;;;;;;;;;;;17.10;64.70;;;;;;5041944;28;884;-72
2023/03/20 13:51:07;;;;;;;;;;;17.10;64.80;;;;;;5043748;28;824;-72
2023/03/20 13:53:51;;;;;;;;;;;17.10;64.80;;;;;;5039129;28;1251;-72
2023/03/20 13:56:25;;;;;;;;;;;17.10;64.80;;;;;;5038203;28;883;-72
2023/03/20 13:58:59;;;;;;;;;;;17.10;64.80;;;;;;5042264;28;1957;-72
2023/03/20 14:01:31;;;;;;;;;;;17.10;64.80;;;;;;5034611;28;875;-73
2023/03/20 14:03:56;;;;;;;;;;;17.10;64.80;;;;;;5038634;28;1225;-75
2023/03/20 14:06:21;;;;;;;;;;;17.10;64.80;;;;;;5037099;28;2111;-72
2023/03/20 14:08:48;;;;;;;;;;;17.20;64.80;;;;;;5037977;28;1448;-72
2023/03/20 14:11:14;;;;;;;;;;;17.20;64.70;;;;;;5039347;28;1164;-73
2023/03/20 14:13:44;;;;;;;;;;;17.20;64.70;;;;;;5037110;28;1402;-72
2023/03/20 14:16:10;;;;;;;;;;;17.20;64.60;;;;;;5036785;28;875;-72
2023/03/20 14:18:36;;;;;;;;;;;17.20;64.50;;;;;;5045921;28;1910;-71
2023/03/20 14:21:03;;;;;;;;;;;17.20;64.40;;;;;;5044553;28;872;-71
2023/03/20 14:23:29;;;;;;;;;;;17.30;64.40;;;;;;5033670;28;1326;-72
2023/03/20 14:25:54;;;;;;;;;;;17.30;64.30;;;;;;5040108;28;893;-72
2023/03/20 14:28:20;;;;;;;;;;;17.30;64.20;;;;;;5038058;28;1596;-72
2023/03/20 14:30:46;;;;;;;;;;;17.40;64.10;;;;;;5041586;28;943;-71
2023/03/20 14:33:11;;;;;;;;;;;17.40;64.10;;;;;;5041358;28;1360;-71
2023/03/20 14:35:38;;;;;;;;;;;17.40;64.00;;;;;;5039616;28;1315;-71
2023/03/20 14:38:07;;;;;;;;;;;17.40;63.90;;;;;;5048035;28;1961;-73
2023/03/20 14:40:33;;;;;;;;;;;17.40;63.80;;;;;;5046099;28;1108;-72
2023/03/20 14:42:59;;;;;;;;;;;17.40;63.70;;;;;;5040672;28;1326;-71